sensor_id;sensor_type;location;lat;lon;timestamp;P1;durP1;ratioP1;P2;durP2;ratioP2
72065;SDS011;59939;52.516;13.420;2023-01-13T00:01:55;60.57;;;57.83;;
72065;SDS011;59939;52.516;13.420;2023-01-13T00:04:59;60.60;;;57.90;;
72065;SDS011;59939;52.516;13.420;2023-01-13T00:08:05;56.93;;;54.33;;
72065;SDS011;59939;52.516;13.420;2023-01-13T00:11:09;60.27;;;57.67;;
72065;SDS011;59939;52.516;13.420;2023-01-13T00:14:16;62.07;;;59.27;;
72065;SDS011;59939;52.516;13.420;2023-01-13T00:17:28;64.90;;;62.10;;
72065;SDS011;59939;52.516;13.420;2023-01-13T00:20:32;65.90;;;63.10;;
72065;SDS011;59939;52.516;13.420;2023-01-13T00:23:49;65.63;;;62.83;;
72065;SDS011;59939;52.516;13.420;2023-01-13T00:26:55;65.30;;;62.50;;
72065;SDS011;59939;52.516;13.420;2023-01-13T00:33:41;61.37;;;58.67;;
72065;SDS011;59939;52.516;13.420;2023-01-13T00:36:47;57.90;;;55.30;;
72065;SDS011;59939;52.516;13.420;2023-01-13T00:39:51;59.03;;;56.43;;
72065;SDS011;59939;52.516;13.420;2023-01-13T00:42:55;59.30;;;56.60;;
72065;SDS011;59939;52.516;13.420;2023-01-13T00:46:27;60.00;;;57.40;;
72065;SDS011;59939;52.516;13.420;2023-01-13T00:49:31;59.73;;;57.13;;
72065;SDS011;59939;52.516;13.420;2023-01-13T00:52:35;56.63;;;54.13;;
72065;SDS011;59939;52.516;13.420;2023-01-13T00:55:45;49.93;;;47.57;;
72065;SDS011;59939;52.516;13.420;2023-01-13T00:58:51;35.30;;;33.40;;
72065;SDS011;59939;52.516;13.420;2023-01-13T01:01:56;28.23;;;26.53;;
72065;SDS011;59939;52.516;13.420;2023-01-13T01:05:01;21.43;;;20.03;;
72065;SDS011;59939;52.516;13.420;2023-01-13T01:08:05;15.53;;;14.20;;
72065;SDS011;59939;52.516;13.420;2023-01-13T01:11:11;12.10;;;11.00;;
72065;SDS011;59939;52.516;13.420;2023-01-13T01:14:15;9.60;;;8.53;;
72065;SDS011;59939;52.516;13.420;2023-01-13T01:17:20;7.60;;;6.90;;
72065;SDS011;59939;52.516;13.420;2023-01-13T01:20:24;8.40;;;7.60;;
72065;SDS011;59939;52.516;13.420;2023-01-13T01:23:28;8.83;;;8.00;;
72065;SDS011;59939;52.516;13.420;2023-01-13T01:26:33;8.70;;;8.00;;
72065;SDS011;59939;52.516;13.420;2023-01-13T01:29:37;7.70;;;7.00;;
72065;SDS011;59939;52.516;13.420;2023-01-13T01:32:41;6.90;;;6.30;;
72065;SDS011;59939;52.516;13.420;2023-01-13T01:36:00;6.77;;;6.10;;
72065;SDS011;59939;52.516;13.420;2023-01-13T01:39:04;5.97;;;5.00;;
72065;SDS011;59939;52.516;13.420;2023-01-13T01:42:14;4.40;;;4.10;;
72065;SDS011;59939;52.516;13.420;2023-01-13T01:45:37;4.60;;;3.90;;
72065;SDS011;59939;52.516;13.420;2023-01-13T01:48:49;4.60;;;3.53;;
72065;SDS011;59939;52.516;13.420;2023-01-13T01:52:03;3.50;;;3.20;;
72065;SDS011;59939;52.516;13.420;2023-01-13T01:55:11;3.40;;;2.87;;
72065;SDS011;59939;52.516;13.420;2023-01-13T01:58:27;3.47;;;3.00;;
72065;SDS011;59939;52.516;13.420;2023-01-13T02:01:32;3.30;;;3.00;;
72065;SDS011;59939;52.516;13.420;2023-01-13T02:04:44;8.27;;;4.47;;
72065;SDS011;59939;52.516;13.420;2023-01-13T02:07:53;3.17;;;2.53;;
72065;SDS011;59939;52.516;13.420;2023-01-13T02:10:59;2.83;;;2.37;;
72065;SDS011;59939;52.516;13.420;2023-01-13T02:14:04;2.63;;;2.43;;
72065;SDS011;59939;52.516;13.420;2023-01-13T02:17:17;2.33;;;2.10;;
72065;SDS011;59939;52.516;13.420;2023-01-13T02:30:38;2.10;;;2.00;;
72065;SDS011;59939;52.516;13.420;2023-01-13T02:37:12;1.90;;;1.80;;
72065;SDS011;59939;52.516;13.420;2023-01-13T02:43:24;2.40;;;1.77;;
72065;SDS011;59939;52.516;13.420;2023-01-13T02:46:59;1.80;;;1.70;;
72065;SDS011;59939;52.516;13.420;2023-01-13T02:50:11;1.80;;;1.70;;
72065;SDS011;59939;52.516;13.420;2023-01-13T02:53:18;2.03;;;1.87;;
72065;SDS011;59939;52.516;13.420;2023-01-13T02:56:22;2.13;;;1.80;;
72065;SDS011;59939;52.516;13.420;2023-01-13T02:59:27;3.90;;;1.67;;
72065;SDS011;59939;52.516;13.420;2023-01-13T03:02:32;2.50;;;1.80;;
72065;SDS011;59939;52.516;13.420;2023-01-13T03:05:38;1.70;;;1.60;;
72065;SDS011;59939;52.516;13.420;2023-01-13T03:12:29;1.60;;;1.50;;
72065;SDS011;59939;52.516;13.420;2023-01-13T03:19:15;1.50;;;1.40;;
72065;SDS011;59939;52.516;13.420;2023-01-13T03:26:03;1.30;;;1.30;;
72065;SDS011;59939;52.516;13.420;2023-01-13T03:29:10;1.83;;;1.60;;
72065;SDS011;59939;52.516;13.420;2023-01-13T03:32:31;2.00;;;1.50;;
72065;SDS011;59939;52.516;13.420;2023-01-13T03:35:38;1.23;;;1.23;;
72065;SDS011;59939;52.516;13.420;2023-01-13T03:38:44;1.30;;;1.30;;
72065;SDS011;59939;52.516;13.420;2023-01-13T03:42:08;1.23;;;1.20;;
72065;SDS011;59939;52.516;13.420;2023-01-13T03:45:14;2.77;;;1.50;;
72065;SDS011;59939;52.516;13.420;2023-01-13T03:48:20;2.33;;;1.30;;
72065;SDS011;59939;52.516;13.420;2023-01-13T03:51:26;3.83;;;1.30;;
72065;SDS011;59939;52.516;13.420;2023-01-13T03:54:32;1.40;;;1.30;;
72065;SDS011;59939;52.516;13.420;2023-01-13T03:57:40;2.23;;;1.10;;
72065;SDS011;59939;52.516;13.420;2023-01-13T04:00:54;1.10;;;1.10;;
72065;SDS011;59939;52.516;13.420;2023-01-13T04:04:02;3.27;;;1.40;;
72065;SDS011;59939;52.516;13.420;2023-01-13T04:07:22;1.20;;;1.20;;
72065;SDS011;59939;52.516;13.420;2023-01-13T04:10:35;1.30;;;1.20;;
72065;SDS011;59939;52.516;13.420;2023-01-13T04:13:40;4.63;;;1.30;;
72065;SDS011;59939;52.516;13.420;2023-01-13T04:16:47;1.50;;;1.37;;
72065;SDS011;59939;52.516;13.420;2023-01-13T04:19:52;1.23;;;1.03;;
72065;SDS011;59939;52.516;13.420;2023-01-13T04:22:56;2.67;;;1.30;;
72065;SDS011;59939;52.516;13.420;2023-01-13T04:26:01;1.20;;;1.10;;
72065;SDS011;59939;52.516;13.420;2023-01-13T04:29:05;1.30;;;1.20;;
72065;SDS011;59939;52.516;13.420;2023-01-13T04:32:08;1.00;;;1.00;;
72065;SDS011;59939;52.516;13.420;2023-01-13T04:35:12;0.90;;;0.90;;
72065;SDS011;59939;52.516;13.420;2023-01-13T04:38:20;1.30;;;1.20;;
72065;SDS011;59939;52.516;13.420;2023-01-13T04:41:32;1.33;;;1.23;;
72065;SDS011;59939;52.516;13.420;2023-01-13T04:44:56;3.83;;;1.67;;
72065;SDS011;59939;52.516;13.420;2023-01-13T04:48:02;3.13;;;1.10;;
72065;SDS011;59939;52.516;13.420;2023-01-13T04:51:07;1.63;;;1.30;;
72065;SDS011;59939;52.516;13.420;2023-01-13T04:54:11;1.10;;;1.00;;
72065;SDS011;59939;52.516;13.420;2023-01-13T04:57:17;2.33;;;1.20;;
72065;SDS011;59939;52.516;13.420;2023-01-13T05:00:24;2.10;;;1.20;;
72065;SDS011;59939;52.516;13.420;2023-01-13T05:03:27;2.10;;;1.30;;
72065;SDS011;59939;52.516;13.420;2023-01-13T05:06:31;1.30;;;1.20;;
72065;SDS011;59939;52.516;13.420;2023-01-13T05:09:35;1.37;;;1.20;;
72065;SDS011;59939;52.516;13.420;2023-01-13T05:12:39;1.10;;;1.10;;
72065;SDS011;59939;52.516;13.420;2023-01-13T05:16:02;1.30;;;1.20;;
72065;SDS011;59939;52.516;13.420;2023-01-13T05:19:25;1.90;;;1.07;;
72065;SDS011;59939;52.516;13.420;2023-01-13T05:22:29;1.10;;;1.10;;
72065;SDS011;59939;52.516;13.420;2023-01-13T05:26:05;2.20;;;1.60;;
72065;SDS011;59939;52.516;13.420;2023-01-13T05:29:09;1.70;;;1.60;;
72065;SDS011;59939;52.516;13.420;2023-01-13T05:32:13;2.00;;;1.90;;
72065;SDS011;59939;52.516;13.420;2023-01-13T05:35:19;3.40;;;1.90;;
72065;SDS011;59939;52.516;13.420;2023-01-13T05:38:25;5.57;;;2.30;;
72065;SDS011;59939;52.516;13.420;2023-01-13T05:41:31;2.30;;;2.10;;
72065;SDS011;59939;52.516;13.420;2023-01-13T05:44:54;1.80;;;1.70;;
72065;SDS011;59939;52.516;13.420;2023-01-13T05:47:57;1.97;;;1.77;;
72065;SDS011;59939;52.516;13.420;2023-01-13T05:51:02;1.73;;;1.63;;
72065;SDS011;59939;52.516;13.420;2023-01-13T05:54:05;2.00;;;1.80;;
72065;SDS011;59939;52.516;13.420;2023-01-13T05:57:09;1.77;;;1.50;;
72065;SDS011;59939;52.516;13.420;2023-01-13T06:00:13;2.43;;;1.50;;
72065;SDS011;59939;52.516;13.420;2023-01-13T06:03:17;1.30;;;1.30;;
72065;SDS011;59939;52.516;13.420;2023-01-13T06:06:24;2.50;;;1.50;;
72065;SDS011;59939;52.516;13.420;2023-01-13T06:09:28;3.87;;;1.70;;
72065;SDS011;59939;52.516;13.420;2023-01-13T06:12:32;3.10;;;1.43;;
72065;SDS011;59939;52.516;13.420;2023-01-13T06:15:35;2.07;;;1.50;;
72065;SDS011;59939;52.516;13.420;2023-01-13T06:18:39;1.60;;;1.50;;
72065;SDS011;59939;52.516;13.420;2023-01-13T06:21:42;2.00;;;1.47;;
72065;SDS011;59939;52.516;13.420;2023-01-13T06:24:48;1.67;;;1.57;;
72065;SDS011;59939;52.516;13.420;2023-01-13T06:27:53;2.33;;;1.30;;
72065;SDS011;59939;52.516;13.420;2023-01-13T06:31:00;3.17;;;1.50;;
72065;SDS011;59939;52.516;13.420;2023-01-13T06:34:10;4.50;;;1.50;;
72065;SDS011;59939;52.516;13.420;2023-01-13T06:37:16;1.33;;;1.20;;
72065;SDS011;59939;52.516;13.420;2023-01-13T06:40:22;1.33;;;1.10;;
72065;SDS011;59939;52.516;13.420;2023-01-13T06:43:26;3.90;;;2.47;;
72065;SDS011;59939;52.516;13.420;2023-01-13T06:46:30;1.43;;;1.10;;
72065;SDS011;59939;52.516;13.420;2023-01-13T06:49:34;1.67;;;1.50;;
72065;SDS011;59939;52.516;13.420;2023-01-13T06:52:38;4.57;;;1.70;;
72065;SDS011;59939;52.516;13.420;2023-01-13T06:55:42;2.20;;;1.80;;
72065;SDS011;59939;52.516;13.420;2023-01-13T06:58:46;2.50;;;2.30;;
72065;SDS011;59939;52.516;13.420;2023-01-13T07:01:50;2.63;;;2.40;;
72065;SDS011;59939;52.516;13.420;2023-01-13T07:04:54;2.40;;;2.23;;
72065;SDS011;59939;52.516;13.420;2023-01-13T07:07:58;2.40;;;2.20;;
72065;SDS011;59939;52.516;13.420;2023-01-13T07:11:01;2.10;;;1.90;;
72065;SDS011;59939;52.516;13.420;2023-01-13T07:14:05;3.17;;;1.93;;
72065;SDS011;59939;52.516;13.420;2023-01-13T07:17:28;6.03;;;1.93;;
72065;SDS011;59939;52.516;13.420;2023-01-13T07:20:32;3.70;;;1.40;;
72065;SDS011;59939;52.516;13.420;2023-01-13T07:23:37;4.13;;;1.50;;
72065;SDS011;59939;52.516;13.420;2023-01-13T07:26:41;1.83;;;1.30;;
72065;SDS011;59939;52.516;13.420;2023-01-13T07:29:45;3.13;;;1.20;;
72065;SDS011;59939;52.516;13.420;2023-01-13T07:32:49;4.33;;;1.17;;
72065;SDS011;59939;52.516;13.420;2023-01-13T07:35:56;2.80;;;1.20;;
72065;SDS011;59939;52.516;13.420;2023-01-13T07:39:00;1.10;;;1.10;;
72065;SDS011;59939;52.516;13.420;2023-01-13T07:42:04;2.20;;;1.20;;
72065;SDS011;59939;52.516;13.420;2023-01-13T07:45:27;1.07;;;0.90;;
72065;SDS011;59939;52.516;13.420;2023-01-13T07:48:32;2.80;;;1.27;;
72065;SDS011;59939;52.516;13.420;2023-01-13T07:51:36;3.80;;;1.30;;
72065;SDS011;59939;52.516;13.420;2023-01-13T07:54:41;1.63;;;0.93;;
72065;SDS011;59939;52.516;13.420;2023-01-13T07:57:44;1.97;;;0.97;;
72065;SDS011;59939;52.516;13.420;2023-01-13T08:00:50;2.63;;;1.07;;
72065;SDS011;59939;52.516;13.420;2023-01-13T08:03:55;1.80;;;0.93;;
72065;SDS011;59939;52.516;13.420;2023-01-13T08:06:59;2.67;;;1.30;;
72065;SDS011;59939;52.516;13.420;2023-01-13T08:10:02;1.50;;;0.90;;
72065;SDS011;59939;52.516;13.420;2023-01-13T08:13:10;4.43;;;0.90;;
72065;SDS011;59939;52.516;13.420;2023-01-13T08:16:19;1.40;;;0.80;;
72065;SDS011;59939;52.516;13.420;2023-01-13T08:19:24;4.57;;;1.20;;
72065;SDS011;59939;52.516;13.420;2023-01-13T08:22:27;1.70;;;0.90;;
72065;SDS011;59939;52.516;13.420;2023-01-13T08:25:33;3.70;;;0.80;;
72065;SDS011;59939;52.516;13.420;2023-01-13T08:28:37;1.27;;;0.70;;
72065;SDS011;59939;52.516;13.420;2023-01-13T08:31:42;1.73;;;0.90;;
72065;SDS011;59939;52.516;13.420;2023-01-13T08:34:46;2.30;;;0.90;;
72065;SDS011;59939;52.516;13.420;2023-01-13T08:37:50;1.73;;;0.70;;
72065;SDS011;59939;52.516;13.420;2023-01-13T08:40:54;1.90;;;1.00;;
72065;SDS011;59939;52.516;13.420;2023-01-13T08:43:58;1.70;;;1.07;;
72065;SDS011;59939;52.516;13.420;2023-01-13T08:47:02;4.37;;;1.10;;
72065;SDS011;59939;52.516;13.420;2023-01-13T08:50:06;1.17;;;0.80;;
72065;SDS011;59939;52.516;13.420;2023-01-13T08:53:10;2.30;;;1.30;;
72065;SDS011;59939;52.516;13.420;2023-01-13T08:56:14;2.40;;;1.20;;
72065;SDS011;59939;52.516;13.420;2023-01-13T08:59:18;0.80;;;0.80;;
72065;SDS011;59939;52.516;13.420;2023-01-13T09:02:22;1.13;;;1.00;;
72065;SDS011;59939;52.516;13.420;2023-01-13T09:05:27;2.03;;;1.20;;
72065;SDS011;59939;52.516;13.420;2023-01-13T09:08:30;3.00;;;1.37;;
72065;SDS011;59939;52.516;13.420;2023-01-13T09:11:35;1.93;;;1.10;;
72065;SDS011;59939;52.516;13.420;2023-01-13T09:14:58;1.57;;;1.17;;
72065;SDS011;59939;52.516;13.420;2023-01-13T09:18:02;3.70;;;1.30;;
72065;SDS011;59939;52.516;13.420;2023-01-13T09:21:05;2.73;;;1.30;;
72065;SDS011;59939;52.516;13.420;2023-01-13T09:24:09;2.13;;;0.90;;
72065;SDS011;59939;52.516;13.420;2023-01-13T09:27:13;4.30;;;1.20;;
72065;SDS011;59939;52.516;13.420;2023-01-13T09:30:17;3.13;;;1.40;;
72065;SDS011;59939;52.516;13.420;2023-01-13T09:33:21;2.57;;;1.10;;
72065;SDS011;59939;52.516;13.420;2023-01-13T09:36:44;1.87;;;1.03;;
72065;SDS011;59939;52.516;13.420;2023-01-13T09:39:48;2.10;;;1.20;;
72065;SDS011;59939;52.516;13.420;2023-01-13T09:42:53;4.57;;;1.20;;
72065;SDS011;59939;52.516;13.420;2023-01-13T09:46:21;5.53;;;1.60;;
72065;SDS011;59939;52.516;13.420;2023-01-13T09:49:44;5.97;;;1.10;;
72065;SDS011;59939;52.516;13.420;2023-01-13T09:52:48;1.53;;;0.97;;
72065;SDS011;59939;52.516;13.420;2023-01-13T09:56:08;3.80;;;1.40;;
72065;SDS011;59939;52.516;13.420;2023-01-13T09:59:20;3.27;;;1.13;;
72065;SDS011;59939;52.516;13.420;2023-01-13T10:02:38;1.80;;;1.00;;
72065;SDS011;59939;52.516;13.420;2023-01-13T10:05:46;2.03;;;0.80;;
72065;SDS011;59939;52.516;13.420;2023-01-13T10:08:52;2.50;;;1.00;;
72065;SDS011;59939;52.516;13.420;2023-01-13T10:11:59;7.93;;;1.50;;
72065;SDS011;59939;52.516;13.420;2023-01-13T10:15:23;3.07;;;1.13;;
72065;SDS011;59939;52.516;13.420;2023-01-13T10:28:24;3.23;;;0.80;;
72065;SDS011;59939;52.516;13.420;2023-01-13T10:31:43;2.20;;;0.80;;
72065;SDS011;59939;52.516;13.420;2023-01-13T10:34:47;1.20;;;0.80;;
72065;SDS011;59939;52.516;13.420;2023-01-13T10:37:57;0.80;;;0.80;;
72065;SDS011;59939;52.516;13.420;2023-01-13T10:41:02;1.80;;;1.07;;
72065;SDS011;59939;52.516;13.420;2023-01-13T10:44:20;1.93;;;1.00;;
72065;SDS011;59939;52.516;13.420;2023-01-13T10:47:32;4.60;;;1.47;;
72065;SDS011;59939;52.516;13.420;2023-01-13T10:50:36;3.20;;;0.90;;
72065;SDS011;59939;52.516;13.420;2023-01-13T10:53:44;3.37;;;0.93;;
72065;SDS011;59939;52.516;13.420;2023-01-13T10:56:49;4.60;;;1.23;;
72065;SDS011;59939;52.516;13.420;2023-01-13T10:59:55;2.67;;;1.10;;
72065;SDS011;59939;52.516;13.420;2023-01-13T11:03:20;3.70;;;1.17;;
72065;SDS011;59939;52.516;13.420;2023-01-13T11:06:26;2.20;;;0.97;;
72065;SDS011;59939;52.516;13.420;2023-01-13T11:09:31;7.67;;;1.37;;
72065;SDS011;59939;52.516;13.420;2023-01-13T11:12:43;6.00;;;1.30;;
72065;SDS011;59939;52.516;13.420;2023-01-13T11:15:51;1.20;;;1.00;;
72065;SDS011;59939;52.516;13.420;2023-01-13T11:19:08;2.87;;;0.93;;
72065;SDS011;59939;52.516;13.420;2023-01-13T11:22:16;2.90;;;1.60;;
72065;SDS011;59939;52.516;13.420;2023-01-13T11:25:23;2.83;;;0.93;;
72065;SDS011;59939;52.516;13.420;2023-01-13T11:28:37;1.90;;;0.90;;
72065;SDS011;59939;52.516;13.420;2023-01-13T11:31:44;3.95;;;1.00;;
72065;SDS011;59939;52.516;13.420;2023-01-13T11:34:59;2.87;;;1.13;;
72065;SDS011;59939;52.516;13.420;2023-01-13T11:38:19;1.80;;;1.00;;
72065;SDS011;59939;52.516;13.420;2023-01-13T11:41:38;4.40;;;1.10;;
72065;SDS011;59939;52.516;13.420;2023-01-13T11:48:14;2.90;;;0.98;;
72065;SDS011;59939;52.516;13.420;2023-01-13T11:51:39;2.83;;;1.20;;
72065;SDS011;59939;52.516;13.420;2023-01-13T11:55:03;10.88;;;1.30;;
72065;SDS011;59939;52.516;13.420;2023-01-13T11:58:13;3.40;;;1.00;;
72065;SDS011;59939;52.516;13.420;2023-01-13T12:04:37;1.90;;;1.03;;
72065;SDS011;59939;52.516;13.420;2023-01-13T12:07:49;5.57;;;1.30;;
72065;SDS011;59939;52.516;13.420;2023-01-13T12:11:02;3.07;;;0.97;;
72065;SDS011;59939;52.516;13.420;2023-01-13T12:14:23;4.70;;;1.10;;
72065;SDS011;59939;52.516;13.420;2023-01-13T12:17:38;5.93;;;1.43;;
72065;SDS011;59939;52.516;13.420;2023-01-13T12:20:57;4.07;;;1.23;;
72065;SDS011;59939;52.516;13.420;2023-01-13T12:27:22;3.80;;;1.25;;
72065;SDS011;59939;52.516;13.420;2023-01-13T12:33:53;3.97;;;1.20;;
72065;SDS011;59939;52.516;13.420;2023-01-13T12:41:08;7.57;;;1.60;;
72065;SDS011;59939;52.516;13.420;2023-01-13T12:44:01;7.67;;;1.47;;
72065;SDS011;59939;52.516;13.420;2023-01-13T12:47:34;4.95;;;1.67;;
72065;SDS011;59939;52.516;13.420;2023-01-13T12:50:39;2.23;;;0.87;;
72065;SDS011;59939;52.516;13.420;2023-01-13T12:53:43;4.57;;;1.70;;
72065;SDS011;59939;52.516;13.420;2023-01-13T12:56:47;5.87;;;1.67;;
72065;SDS011;59939;52.516;13.420;2023-01-13T13:03:18;7.30;;;1.40;;
72065;SDS011;59939;52.516;13.420;2023-01-13T13:06:27;4.33;;;1.17;;
72065;SDS011;59939;52.516;13.420;2023-01-13T13:09:46;5.20;;;1.23;;
72065;SDS011;59939;52.516;13.420;2023-01-13T13:12:53;4.13;;;0.93;;
72065;SDS011;59939;52.516;13.420;2023-01-13T13:22:43;10.53;;;1.87;;
72065;SDS011;59939;52.516;13.420;2023-01-13T13:36:26;4.23;;;1.40;;
72065;SDS011;59939;52.516;13.420;2023-01-13T13:39:39;2.60;;;0.90;;
72065;SDS011;59939;52.516;13.420;2023-01-13T13:43:06;3.33;;;1.13;;
72065;SDS011;59939;52.516;13.420;2023-01-13T13:46:33;5.97;;;1.63;;
72065;SDS011;59939;52.516;13.420;2023-01-13T13:49:52;5.33;;;1.33;;
72065;SDS011;59939;52.516;13.420;2023-01-13T13:53:00;1.90;;;1.10;;
72065;SDS011;59939;52.516;13.420;2023-01-13T13:56:05;5.93;;;1.53;;
72065;SDS011;59939;52.516;13.420;2023-01-13T14:02:52;7.22;;;1.50;;
72065;SDS011;59939;52.516;13.420;2023-01-13T14:05:58;5.20;;;1.17;;
72065;SDS011;59939;52.516;13.420;2023-01-13T14:09:11;4.80;;;1.23;;
72065;SDS011;59939;52.516;13.420;2023-01-13T14:12:19;10.17;;;1.73;;
72065;SDS011;59939;52.516;13.420;2023-01-13T14:15:35;7.47;;;1.90;;
72065;SDS011;59939;52.516;13.420;2023-01-13T14:18:46;3.00;;;1.23;;
72065;SDS011;59939;52.516;13.420;2023-01-13T14:21:53;5.67;;;1.57;;
72065;SDS011;59939;52.516;13.420;2023-01-13T14:24:57;5.47;;;1.20;;
72065;SDS011;59939;52.516;13.420;2023-01-13T14:28:44;1.57;;;0.93;;
72065;SDS011;59939;52.516;13.420;2023-01-13T14:31:29;4.50;;;1.20;;
72065;SDS011;59939;52.516;13.420;2023-01-13T14:34:33;4.50;;;1.40;;
72065;SDS011;59939;52.516;13.420;2023-01-13T14:37:40;10.53;;;1.33;;
72065;SDS011;59939;52.516;13.420;2023-01-13T14:40:44;6.10;;;1.60;;
72065;SDS011;59939;52.516;13.420;2023-01-13T14:43:57;7.97;;;1.40;;
72065;SDS011;59939;52.516;13.420;2023-01-13T14:50:26;3.30;;;1.27;;
72065;SDS011;59939;52.516;13.420;2023-01-13T14:53:40;5.80;;;1.30;;
72065;SDS011;59939;52.516;13.420;2023-01-13T14:56:50;5.20;;;1.40;;
72065;SDS011;59939;52.516;13.420;2023-01-13T15:03:18;5.93;;;1.63;;
72065;SDS011;59939;52.516;13.420;2023-01-13T15:06:22;7.47;;;1.80;;
72065;SDS011;59939;52.516;13.420;2023-01-13T15:09:37;6.00;;;1.60;;
72065;SDS011;59939;52.516;13.420;2023-01-13T15:12:42;5.33;;;1.40;;
72065;SDS011;59939;52.516;13.420;2023-01-13T15:15:49;6.90;;;1.20;;
72065;SDS011;59939;52.516;13.420;2023-01-13T15:18:54;6.27;;;1.67;;
72065;SDS011;59939;52.516;13.420;2023-01-13T15:22:01;4.93;;;0.90;;
72065;SDS011;59939;52.516;13.420;2023-01-13T15:25:04;5.10;;;1.60;;
72065;SDS011;59939;52.516;13.420;2023-01-13T15:28:22;5.93;;;1.60;;
72065;SDS011;59939;52.516;13.420;2023-01-13T15:31:27;3.40;;;1.20;;
72065;SDS011;59939;52.516;13.420;2023-01-13T15:34:31;8.87;;;2.03;;
72065;SDS011;59939;52.516;13.420;2023-01-13T15:37:35;5.87;;;1.40;;
72065;SDS011;59939;52.516;13.420;2023-01-13T15:40:40;4.57;;;1.47;;
72065;SDS011;59939;52.516;13.420;2023-01-13T15:43:47;8.63;;;1.63;;
72065;SDS011;59939;52.516;13.420;2023-01-13T15:47:17;6.67;;;2.00;;
72065;SDS011;59939;52.516;13.420;2023-01-13T15:50:23;8.83;;;1.30;;
72065;SDS011;59939;52.516;13.420;2023-01-13T15:53:29;5.60;;;1.73;;
72065;SDS011;59939;52.516;13.420;2023-01-13T15:56:34;6.20;;;1.70;;
72065;SDS011;59939;52.516;13.420;2023-01-13T15:59:39;4.93;;;1.87;;
72065;SDS011;59939;52.516;13.420;2023-01-13T16:02:42;8.53;;;2.17;;
72065;SDS011;59939;52.516;13.420;2023-01-13T16:05:47;6.13;;;1.97;;
72065;SDS011;59939;52.516;13.420;2023-01-13T16:08:55;3.27;;;1.40;;
72065;SDS011;59939;52.516;13.420;2023-01-13T16:11:59;4.13;;;1.23;;
72065;SDS011;59939;52.516;13.420;2023-01-13T16:15:03;3.87;;;1.20;;
72065;SDS011;59939;52.516;13.420;2023-01-13T16:18:06;9.23;;;1.90;;
72065;SDS011;59939;52.516;13.420;2023-01-13T16:21:10;5.30;;;1.37;;
72065;SDS011;59939;52.516;13.420;2023-01-13T16:24:17;6.43;;;1.47;;
72065;SDS011;59939;52.516;13.420;2023-01-13T16:27:24;3.87;;;1.50;;
72065;SDS011;59939;52.516;13.420;2023-01-13T16:30:29;7.47;;;2.00;;
72065;SDS011;59939;52.516;13.420;2023-01-13T16:33:33;7.27;;;1.83;;
72065;SDS011;59939;52.516;13.420;2023-01-13T16:36:38;5.47;;;1.90;;
72065;SDS011;59939;52.516;13.420;2023-01-13T16:39:41;4.20;;;1.50;;
72065;SDS011;59939;52.516;13.420;2023-01-13T16:42:45;5.27;;;1.47;;
72065;SDS011;59939;52.516;13.420;2023-01-13T16:45:52;7.97;;;1.80;;
72065;SDS011;59939;52.516;13.420;2023-01-13T16:48:56;5.83;;;1.13;;
72065;SDS011;59939;52.516;13.420;2023-01-13T16:52:05;3.70;;;1.17;;
72065;SDS011;59939;52.516;13.420;2023-01-13T16:55:17;6.83;;;1.40;;
72065;SDS011;59939;52.516;13.420;2023-01-13T16:58:21;3.43;;;1.40;;
72065;SDS011;59939;52.516;13.420;2023-01-13T17:01:31;9.50;;;2.10;;
72065;SDS011;59939;52.516;13.420;2023-01-13T17:04:36;5.10;;;1.57;;
72065;SDS011;59939;52.516;13.420;2023-01-13T17:07:40;5.07;;;1.50;;
72065;SDS011;59939;52.516;13.420;2023-01-13T17:10:47;3.50;;;1.57;;
72065;SDS011;59939;52.516;13.420;2023-01-13T17:13:52;6.07;;;1.40;;
72065;SDS011;59939;52.516;13.420;2023-01-13T17:16:58;6.53;;;1.33;;
72065;SDS011;59939;52.516;13.420;2023-01-13T17:20:03;5.10;;;1.70;;
72065;SDS011;59939;52.516;13.420;2023-01-13T17:23:08;3.37;;;1.70;;
72065;SDS011;59939;52.516;13.420;2023-01-13T17:29:37;8.40;;;1.90;;
72065;SDS011;59939;52.516;13.420;2023-01-13T17:32:43;9.00;;;1.83;;
72065;SDS011;59939;52.516;13.420;2023-01-13T17:35:47;5.17;;;1.57;;
72065;SDS011;59939;52.516;13.420;2023-01-13T17:38:51;4.23;;;1.50;;
72065;SDS011;59939;52.516;13.420;2023-01-13T17:41:54;7.53;;;2.23;;
72065;SDS011;59939;52.516;13.420;2023-01-13T17:45:01;8.97;;;1.60;;
72065;SDS011;59939;52.516;13.420;2023-01-13T17:48:05;8.83;;;2.10;;
72065;SDS011;59939;52.516;13.420;2023-01-13T17:51:11;4.03;;;1.60;;
72065;SDS011;59939;52.516;13.420;2023-01-13T17:54:18;5.67;;;2.00;;
72065;SDS011;59939;52.516;13.420;2023-01-13T17:57:24;7.30;;;2.30;;
72065;SDS011;59939;52.516;13.420;2023-01-13T18:00:27;9.47;;;1.93;;
72065;SDS011;59939;52.516;13.420;2023-01-13T18:03:32;6.03;;;1.07;;
72065;SDS011;59939;52.516;13.420;2023-01-13T18:06:36;4.17;;;1.93;;
72065;SDS011;59939;52.516;13.420;2023-01-13T18:09:48;9.03;;;1.90;;
72065;SDS011;59939;52.516;13.420;2023-01-13T18:12:51;8.60;;;1.97;;
72065;SDS011;59939;52.516;13.420;2023-01-13T18:16:12;4.23;;;1.70;;
72065;SDS011;59939;52.516;13.420;2023-01-13T18:19:15;4.60;;;1.50;;
72065;SDS011;59939;52.516;13.420;2023-01-13T18:22:44;5.73;;;1.50;;
72065;SDS011;59939;52.516;13.420;2023-01-13T18:26:14;6.70;;;1.20;;
72065;SDS011;59939;52.516;13.420;2023-01-13T18:29:41;9.80;;;1.80;;
72065;SDS011;59939;52.516;13.420;2023-01-13T18:32:46;5.77;;;1.50;;
72065;SDS011;59939;52.516;13.420;2023-01-13T18:35:49;4.30;;;1.70;;
72065;SDS011;59939;52.516;13.420;2023-01-13T18:38:53;5.37;;;1.73;;
72065;SDS011;59939;52.516;13.420;2023-01-13T18:41:57;5.67;;;1.57;;
72065;SDS011;59939;52.516;13.420;2023-01-13T18:45:21;4.63;;;1.23;;
72065;SDS011;59939;52.516;13.420;2023-01-13T18:48:26;5.87;;;1.47;;
72065;SDS011;59939;52.516;13.420;2023-01-13T18:51:30;5.13;;;2.07;;
72065;SDS011;59939;52.516;13.420;2023-01-13T18:54:41;4.63;;;1.20;;
72065;SDS011;59939;52.516;13.420;2023-01-13T18:57:47;7.30;;;1.90;;
72065;SDS011;59939;52.516;13.420;2023-01-13T19:01:04;5.83;;;1.80;;
72065;SDS011;59939;52.516;13.420;2023-01-13T19:04:13;6.57;;;1.50;;
72065;SDS011;59939;52.516;13.420;2023-01-13T19:07:34;5.33;;;1.40;;
72065;SDS011;59939;52.516;13.420;2023-01-13T19:10:39;8.07;;;1.77;;
72065;SDS011;59939;52.516;13.420;2023-01-13T19:13:50;7.60;;;1.30;;
72065;SDS011;59939;52.516;13.420;2023-01-13T19:16:55;8.13;;;1.80;;
72065;SDS011;59939;52.516;13.420;2023-01-13T19:19:59;7.63;;;1.83;;
72065;SDS011;59939;52.516;13.420;2023-01-13T19:23:03;4.93;;;1.67;;
72065;SDS011;59939;52.516;13.420;2023-01-13T19:26:07;6.47;;;1.37;;
72065;SDS011;59939;52.516;13.420;2023-01-13T19:29:11;9.23;;;2.00;;
72065;SDS011;59939;52.516;13.420;2023-01-13T19:32:19;7.30;;;1.50;;
72065;SDS011;59939;52.516;13.420;2023-01-13T19:35:23;5.67;;;2.17;;
72065;SDS011;59939;52.516;13.420;2023-01-13T19:38:29;5.73;;;1.40;;
72065;SDS011;59939;52.516;13.420;2023-01-13T19:41:33;7.13;;;1.83;;
72065;SDS011;59939;52.516;13.420;2023-01-13T19:44:57;4.43;;;1.50;;
72065;SDS011;59939;52.516;13.420;2023-01-13T19:48:20;8.43;;;1.70;;
72065;SDS011;59939;52.516;13.420;2023-01-13T19:51:24;5.43;;;2.07;;
72065;SDS011;59939;52.516;13.420;2023-01-13T19:54:29;10.03;;;1.77;;
72065;SDS011;59939;52.516;13.420;2023-01-13T19:57:41;2.00;;;1.23;;
72065;SDS011;59939;52.516;13.420;2023-01-13T20:00:48;6.93;;;1.97;;
72065;SDS011;59939;52.516;13.420;2023-01-13T20:03:53;6.63;;;1.83;;
72065;SDS011;59939;52.516;13.420;2023-01-13T20:07:05;3.00;;;1.57;;
72065;SDS011;59939;52.516;13.420;2023-01-13T20:10:20;7.40;;;1.47;;